Time;durP1;ratioP1;P1;durP2;ratioP2;P2;SDS_P1;SDS_P2;PMS_P1;PMS_P2;Temp;Humidity;BMP_temperature;BMP_pressure;BME280_temperature;BME280_humidity;BME280_pressure;Samples;Min_cycle;Max_cycle;Signal;HPM_P1;HPM_P2
2021/08/08 00:00:00;;;;;;;3.30;1.60;;;17.50;99.90;;;;;;5026837;28;20429;-74
2021/08/08 00:02:26;;;;;;;2.33;1.80;;;17.50;99.90;;;;;;5022208;28;20687;-74
2021/08/08 00:04:53;;;;;;;1.90;1.60;;;17.50;99.90;;;;;;5024656;28;20181;-74
2021/08/08 00:07:18;;;;;;;1.93;1.50;;;17.50;99.90;;;;;;5027898;28;20228;-74
2021/08/08 00:09:46;;;;;;;1.87;1.73;;;17.60;99.90;;;;;;5025267;28;21139;-74
2021/08/08 00:12:12;;;;;;;2.60;1.57;;;17.50;99.90;;;;;;5027661;28;20172;-74
2021/08/08 00:14:38;;;;;;;5.17;1.80;;;17.50;99.90;;;;;;5026968;28;20411;-74
2021/08/08 00:17:05;;;;;;;2.50;1.60;;;17.50;99.90;;;;;;5027020;28;20614;-74
2021/08/08 00:19:32;;;;;;;4.63;1.50;;;17.50;99.90;;;;;;5024640;28;20486;-74
2021/08/08 00:21:57;;;;;;;1.70;1.60;;;17.50;99.90;;;;;;5030564;28;20532;-74
2021/08/08 00:24:23;;;;;;;2.27;1.80;;;17.50;99.90;;;;;;5031356;28;20771;-74
2021/08/08 00:26:49;;;;;;;2.77;1.70;;;17.50;99.90;;;;;;5030397;28;20205;-74
2021/08/08 00:29:14;;;;;;;1.80;1.57;;;17.50;99.90;;;;;;5031678;28;20223;-74
2021/08/08 00:31:40;;;;;;;5.13;1.73;;;17.50;99.90;;;;;;5030145;28;20191;-74
2021/08/08 00:34:06;;;;;;;3.60;1.80;;;17.50;99.90;;;;;;5030362;28;20646;-74
2021/08/08 00:36:34;;;;;;;1.67;1.57;;;17.50;99.90;;;;;;5031089;28;20212;-74
2021/08/08 00:39:00;;;;;;;2.77;2.33;;;17.50;99.90;;;;;;5027855;28;20552;-74
2021/08/08 00:41:26;;;;;;;1.63;1.53;;;17.50;99.90;;;;;;5030111;28;20885;-75
2021/08/08 00:43:54;;;;;;;2.03;1.83;;;17.50;99.90;;;;;;5029784;28;20720;-75
2021/08/08 00:46:20;;;;;;;1.70;1.60;;;17.40;99.90;;;;;;5029666;28;20434;-74
2021/08/08 00:48:46;;;;;;;2.40;1.80;;;17.50;99.90;;;;;;5031000;28;20557;-75
2021/08/08 00:51:12;;;;;;;2.70;1.67;;;17.40;99.90;;;;;;5030676;28;20224;-75
2021/08/08 00:53:37;;;;;;;1.50;1.40;;;17.40;99.90;;;;;;5028466;28;20192;-74
2021/08/08 00:56:03;;;;;;;3.50;1.97;;;17.50;99.90;;;;;;5030534;28;20459;-75
2021/08/08 00:58:29;;;;;;;2.47;1.80;;;17.50;99.90;;;;;;5013724;28;20666;-75
2021/08/08 01:00:59;;;;;;;3.63;1.73;;;17.50;99.90;;;;;;5030482;28;20196;-75
2021/08/08 01:03:26;;;;;;;2.93;1.70;;;17.50;99.90;;;;;;5029494;28;20493;-75
2021/08/08 01:06:12;;;;;;;2.23;1.80;;;17.50;99.90;;;;;;5028609;28;20554;-75
2021/08/08 01:08:44;;;;;;;2.80;1.50;;;17.60;99.90;;;;;;5022635;28;20450;-75
2021/08/08 01:11:11;;;;;;;1.90;1.40;;;17.50;99.90;;;;;;5028838;28;20439;-75
2021/08/08 01:13:37;;;;;;;3.10;1.90;;;17.50;99.90;;;;;;5030107;28;21113;-75
2021/08/08 01:16:04;;;;;;;1.60;1.50;;;17.50;99.90;;;;;;5030492;28;21000;-75
2021/08/08 01:18:32;;;;;;;1.80;1.60;;;17.60;99.90;;;;;;5029500;28;20959;-75
2021/08/08 01:20:58;;;;;;;2.80;1.87;;;17.60;99.90;;;;;;5011476;28;20789;-75
2021/08/08 01:23:25;;;;;;;2.10;1.90;;;17.50;99.90;;;;;;5028320;28;20605;-75
2021/08/08 01:25:51;;;;;;;2.40;1.67;;;17.50;99.90;;;;;;5030519;28;20910;-75
2021/08/08 01:28:17;;;;;;;1.90;1.70;;;17.50;99.90;;;;;;5029098;28;20424;-75
2021/08/08 01:30:43;;;;;;;2.00;1.70;;;17.50;99.90;;;;;;5030060;28;20920;-74
2021/08/08 01:33:10;;;;;;;1.70;1.60;;;17.60;99.90;;;;;;5026356;28;20431;-74
2021/08/08 01:35:36;;;;;;;5.93;2.00;;;17.60;99.90;;;;;;5027014;28;20450;-74
2021/08/08 01:38:03;;;;;;;3.27;1.63;;;17.50;99.90;;;;;;5029214;28;20485;-74
2021/08/08 01:40:34;;;;;;;2.80;1.53;;;17.50;99.90;;;;;;5028990;28;20199;-74
2021/08/08 01:43:03;;;;;;;2.37;1.70;;;17.50;99.90;;;;;;5029435;28;20935;-74
2021/08/08 01:45:29;;;;;;;1.97;1.77;;;17.40;99.90;;;;;;5027398;28;20467;-74
2021/08/08 01:47:59;;;;;;;1.80;1.60;;;17.40;99.90;;;;;;5028563;28;20428;-74
2021/08/08 01:50:31;;;;;;;2.80;1.53;;;17.50;99.90;;;;;;5030601;28;20445;-74
2021/08/08 01:53:00;;;;;;;1.97;1.50;;;17.40;99.90;;;;;;5028402;28;20427;-74
2021/08/08 01:55:29;;;;;;;1.90;1.70;;;17.50;99.90;;;;;;5009040;28;21203;-74
2021/08/08 01:57:57;;;;;;;1.90;1.70;;;17.40;99.90;;;;;;5026929;28;20482;-74
2021/08/08 02:00:25;;;;;;;4.37;1.73;;;17.40;99.90;;;;;;5028041;28;20963;-74
2021/08/08 02:02:55;;;;;;;1.70;1.60;;;17.40;99.90;;;;;;5027387;28;21174;-74
2021/08/08 02:05:22;;;;;;;1.77;1.60;;;17.40;99.90;;;;;;5022887;28;20435;-73
2021/08/08 02:07:48;;;;;;;1.87;1.60;;;17.40;99.90;;;;;;5029101;28;20491;-73
2021/08/08 02:10:14;;;;;;;1.83;1.70;;;17.40;99.90;;;;;;5011351;28;20443;-74
2021/08/08 02:12:40;;;;;;;4.47;1.60;;;17.40;99.90;;;;;;5031611;28;20513;-74
2021/08/08 02:15:06;;;;;;;2.10;1.90;;;17.40;99.90;;;;;;5029164;28;20435;-74
2021/08/08 02:17:33;;;;;;;3.20;2.10;;;17.40;99.90;;;;;;5027796;28;20647;-74
2021/08/08 02:19:58;;;;;;;2.40;2.20;;;17.30;99.90;;;;;;5028212;28;20779;-75
2021/08/08 02:22:24;;;;;;;3.93;1.73;;;17.30;99.90;;;;;;5026329;28;20536;-75
2021/08/08 02:24:50;;;;;;;5.77;1.80;;;17.40;99.90;;;;;;5025398;28;20234;-75
2021/08/08 02:27:15;;;;;;;2.53;2.03;;;17.30;99.90;;;;;;5028831;28;20291;-75
2021/08/08 02:29:41;;;;;;;4.50;2.03;;;17.30;99.90;;;;;;5026944;28;20772;-75
2021/08/08 02:32:07;;;;;;;3.63;1.70;;;17.40;99.90;;;;;;5026341;28;20192;-79
2021/08/08 02:34:32;;;;;;;2.03;1.83;;;17.40;99.90;;;;;;5025237;28;20728;-75
2021/08/08 02:36:58;;;;;;;2.80;1.90;;;17.40;99.90;;;;;;5024186;28;20271;-75
2021/08/08 02:39:23;;;;;;;3.50;1.87;;;17.50;99.90;;;;;;5026462;28;20200;-75
2021/08/08 02:41:49;;;;;;;1.93;1.73;;;17.50;99.90;;;;;;5027920;28;20231;-75
2021/08/08 02:44:15;;;;;;;2.60;2.00;;;17.50;99.90;;;;;;5028005;28;20196;-75
2021/08/08 02:46:40;;;;;;;2.30;1.90;;;17.50;99.90;;;;;;5025654;28;20209;-75
2021/08/08 02:49:06;;;;;;;3.20;1.80;;;17.50;99.90;;;;;;5024882;28;20211;-75
2021/08/08 02:51:32;;;;;;;2.73;1.93;;;17.40;99.90;;;;;;5026422;28;20259;-75
2021/08/08 02:53:57;;;;;;;3.27;2.00;;;17.40;99.90;;;;;;5028184;28;20187;-75
2021/08/08 02:56:23;;;;;;;2.03;1.80;;;17.40;99.90;;;;;;5027128;28;20291;-75
2021/08/08 02:58:49;;;;;;;2.10;1.90;;;17.40;99.90;;;;;;5027139;28;20268;-75
2021/08/08 03:01:14;;;;;;;2.00;1.77;;;17.40;99.90;;;;;;5026525;28;20670;-75
2021/08/08 03:03:40;;;;;;;4.33;1.97;;;17.50;99.90;;;;;;5028140;28;20216;-75
2021/08/08 03:06:13;;;;;;;2.50;1.63;;;17.60;99.90;;;;;;5023588;28;20688;-75
2021/08/08 03:08:42;;;;;;;6.30;1.80;;;17.50;99.90;;;;;;5029184;28;20191;-75
2021/08/08 03:11:08;;;;;;;2.93;1.80;;;17.50;99.90;;;;;;5026745;28;20503;-75
2021/08/08 03:13:34;;;;;;;3.20;1.57;;;17.50;99.90;;;;;;5022869;28;20432;-76
2021/08/08 03:16:00;;;;;;;2.00;1.80;;;17.50;99.90;;;;;;5026147;28;20467;-75
2021/08/08 03:18:25;;;;;;;2.30;1.70;;;17.50;99.90;;;;;;5025222;28;20219;-75
2021/08/08 03:20:51;;;;;;;5.73;1.70;;;17.60;99.90;;;;;;5024979;28;20200;-77
2021/08/08 03:23:18;;;;;;;3.87;1.63;;;17.60;99.90;;;;;;5024921;28;20216;-74
2021/08/08 03:25:44;;;;;;;2.40;1.73;;;17.60;99.90;;;;;;5025392;28;20212;-75
2021/08/08 03:28:10;;;;;;;2.13;1.60;;;17.60;99.90;;;;;;5023333;28;20569;-73
2021/08/08 03:30:36;;;;;;;2.63;1.80;;;17.50;99.90;;;;;;5027940;28;20997;-74
2021/08/08 03:33:02;;;;;;;4.60;1.90;;;17.50;99.90;;;;;;5025745;28;20199;-73
2021/08/08 03:35:28;;;;;;;2.23;1.70;;;17.50;99.90;;;;;;5026414;28;20976;-74
2021/08/08 03:37:54;;;;;;;3.67;2.00;;;17.40;99.90;;;;;;5029852;28;20999;-74
2021/08/08 03:40:23;;;;;;;2.57;1.97;;;17.40;99.90;;;;;;5025518;28;20462;-74
2021/08/08 03:42:49;;;;;;;2.13;1.67;;;17.50;99.90;;;;;;5026693;28;20470;-74
2021/08/08 03:45:14;;;;;;;2.50;1.70;;;17.50;99.90;;;;;;5027389;28;20549;-74
2021/08/08 03:47:40;;;;;;;2.13;1.50;;;17.50;99.90;;;;;;5026846;28;20200;-75
2021/08/08 03:50:07;;;;;;;2.27;1.53;;;17.50;99.90;;;;;;5026614;28;20732;-74
2021/08/08 03:52:32;;;;;;;5.17;2.10;;;17.50;99.90;;;;;;5023187;28;20204;-75
2021/08/08 03:54:58;;;;;;;5.67;2.00;;;17.50;99.90;;;;;;5028485;28;20911;-74
2021/08/08 03:57:24;;;;;;;3.63;1.90;;;17.50;99.90;;;;;;5027587;28;20211;-74
2021/08/08 03:59:49;;;;;;;2.53;1.90;;;17.50;99.90;;;;;;5029595;28;20196;-74
2021/08/08 04:02:18;;;;;;;1.93;1.80;;;17.50;99.90;;;;;;5031972;28;20216;-75
2021/08/08 04:04:44;;;;;;;2.53;1.87;;;17.50;99.90;;;;;;5029736;28;20243;-75
2021/08/08 04:07:09;;;;;;;1.90;1.60;;;17.50;99.90;;;;;;5028310;28;20463;-75
2021/08/08 04:09:35;;;;;;;3.83;2.53;;;17.40;99.90;;;;;;5028639;28;20212;-75
2021/08/08 04:12:05;;;;;;;2.60;1.70;;;17.40;99.90;;;;;;5030751;28;20192;-75
2021/08/08 04:14:30;;;;;;;2.97;1.90;;;17.30;99.90;;;;;;5030723;28;20193;-75
2021/08/08 04:16:56;;;;;;;4.20;2.10;;;17.30;99.90;;;;;;5027188;28;20485;-75
2021/08/08 04:19:22;;;;;;;4.00;1.77;;;17.30;99.90;;;;;;5027733;28;20204;-75
2021/08/08 04:21:47;;;;;;;3.63;1.60;;;17.30;99.90;;;;;;5029130;28;20199;-75
2021/08/08 04:24:13;;;;;;;2.33;1.50;;;17.30;99.90;;;;;;5031019;28;20193;-75
2021/08/08 04:26:39;;;;;;;3.33;1.87;;;17.30;99.90;;;;;;5028548;28;20239;-75
2021/08/08 04:29:04;;;;;;;4.10;2.10;;;17.40;99.90;;;;;;5016096;28;20188;-75
2021/08/08 04:31:30;;;;;;;5.07;1.50;;;17.30;99.90;;;;;;5031136;28;20267;-75
2021/08/08 04:33:55;;;;;;;2.77;1.80;;;17.30;99.90;;;;;;5027425;28;20193;-75
2021/08/08 04:36:21;;;;;;;4.03;1.60;;;17.30;99.90;;;;;;5031559;28;20231;-75
2021/08/08 04:38:47;;;;;;;2.20;1.50;;;17.30;99.90;;;;;;5031228;28;20196;-75
2021/08/08 04:41:12;;;;;;;3.20;1.60;;;17.40;99.90;;;;;;5029957;28;21026;-75
2021/08/08 04:43:38;;;;;;;4.93;2.00;;;17.50;99.90;;;;;;5029442;28;20251;-75
2021/08/08 04:46:03;;;;;;;2.03;1.57;;;17.40;99.90;;;;;;5030258;28;20208;-75
2021/08/08 04:48:29;;;;;;;2.53;1.70;;;17.40;99.90;;;;;;5030395;28;20186;-75
2021/08/08 04:50:55;;;;;;;2.40;1.67;;;17.40;99.90;;;;;;5030278;28;20188;-75
2021/08/08 04:53:20;;;;;;;1.53;1.40;;;17.50;99.90;;;;;;5029716;28;20270;-75
2021/08/08 04:55:46;;;;;;;3.07;1.53;;;17.50;99.90;;;;;;5025359;28;20235;-75
2021/08/08 04:58:13;;;;;;;3.23;1.63;;;17.60;99.90;;;;;;5029059;28;20219;-75
2021/08/08 05:00:39;;;;;;;1.50;1.40;;;17.50;99.90;;;;;;5027913;28;20474;-75
2021/08/08 05:03:05;;;;;;;2.63;1.80;;;17.60;99.90;;;;;;5030321;28;20813;-74
2021/08/08 05:05:31;;;;;;;2.33;1.50;;;17.70;99.90;;;;;;5030381;28;20211;-75
2021/08/08 05:07:57;;;;;;;2.90;1.90;;;17.80;99.90;;;;;;5026332;28;20423;-75
2021/08/08 05:10:26;;;;;;;5.17;1.67;;;17.60;99.90;;;;;;5030678;28;20280;-75
2021/08/08 05:12:53;;;;;;;3.27;1.63;;;17.60;99.90;;;;;;5029933;28;20423;-75
2021/08/08 05:15:19;;;;;;;2.23;1.80;;;17.60;99.90;;;;;;5031016;28;20886;-75
2021/08/08 05:17:45;;;;;;;2.60;1.73;;;17.50;99.90;;;;;;5029868;28;20964;-75
2021/08/08 05:20:12;;;;;;;2.87;1.67;;;17.50;99.90;;;;;;5029624;28;20451;-75
2021/08/08 05:22:38;;;;;;;3.57;2.00;;;17.50;99.90;;;;;;5028963;28;20463;-75
2021/08/08 05:25:04;;;;;;;1.70;1.60;;;17.50;99.90;;;;;;5028432;28;20836;-75
2021/08/08 05:27:33;;;;;;;3.70;1.80;;;17.60;99.90;;;;;;5027599;28;20271;-75
2021/08/08 05:30:00;;;;;;;2.30;1.90;;;17.60;99.90;;;;;;5024925;28;20434;-75
2021/08/08 05:32:26;;;;;;;4.00;1.83;;;17.70;99.90;;;;;;5025362;28;20431;-74
2021/08/08 05:34:51;;;;;;;3.10;1.70;;;17.80;99.90;;;;;;5026202;28;21254;-75
2021/08/08 05:37:17;;;;;;;3.00;2.70;;;17.80;99.90;;;;;;5029899;28;20224;-75
2021/08/08 05:39:43;;;;;;;3.00;1.90;;;18.00;99.90;;;;;;5009733;28;20193;-74
2021/08/08 05:42:09;;;;;;;2.10;1.50;;;17.90;99.90;;;;;;5027489;28;20586;-74
2021/08/08 05:44:37;;;;;;;2.93;1.90;;;18.00;99.90;;;;;;5029349;28;20271;-74
2021/08/08 05:47:07;;;;;;;2.23;1.90;;;18.00;99.90;;;;;;5012296;28;20201;-75
2021/08/08 05:49:34;;;;;;;2.27;1.90;;;18.10;99.90;;;;;;5027802;28;20408;-75
2021/08/08 05:52:03;;;;;;;1.97;1.53;;;18.10;99.90;;;;;;5028981;28;20466;-74
2021/08/08 05:54:29;;;;;;;3.30;2.13;;;18.10;99.90;;;;;;5028988;28;20466;-73
2021/08/08 05:56:55;;;;;;;2.37;1.97;;;18.10;99.90;;;;;;5031213;28;20439;-73
2021/08/08 05:59:21;;;;;;;6.10;1.67;;;18.10;99.90;;;;;;5029156;28;20481;-73
2021/08/08 06:01:46;;;;;;;1.90;1.57;;;18.10;99.90;;;;;;5026578;28;20645;-75
2021/08/08 06:04:12;;;;;;;1.77;1.60;;;18.10;99.90;;;;;;5029439;28;20189;-75
2021/08/08 06:06:38;;;;;;;2.13;1.50;;;18.20;99.90;;;;;;5029389;28;20200;-74
2021/08/08 06:09:03;;;;;;;2.20;1.67;;;18.20;99.90;;;;;;5027621;28;20194;-74
2021/08/08 06:11:29;;;;;;;2.83;2.33;;;18.20;99.90;;;;;;5015651;28;20271;-74
2021/08/08 06:13:55;;;;;;;1.87;1.50;;;18.10;99.90;;;;;;5030712;28;20608;-74
2021/08/08 06:16:20;;;;;;;1.90;1.70;;;18.20;99.90;;;;;;5028507;28;20294;-74
2021/08/08 06:18:46;;;;;;;2.37;1.93;;;18.10;99.90;;;;;;5027416;28;20738;-74
2021/08/08 06:21:11;;;;;;;4.30;1.60;;;18.10;99.90;;;;;;5025591;28;20200;-73
2021/08/08 06:23:37;;;;;;;2.33;1.70;;;18.10;99.90;;;;;;5025813;28;20258;-75
2021/08/08 06:26:03;;;;;;;3.23;1.63;;;18.10;99.90;;;;;;5025256;28;20201;-75
2021/08/08 06:28:28;;;;;;;7.60;2.83;;;18.10;99.90;;;;;;5027629;28;20188;-75
2021/08/08 06:30:54;;;;;;;3.40;1.80;;;18.20;99.90;;;;;;5029116;28;20189;-75
2021/08/08 06:33:20;;;;;;;2.27;1.70;;;18.20;99.90;;;;;;5027698;28;20211;-75
2021/08/08 06:35:47;;;;;;;2.57;1.80;;;18.30;99.90;;;;;;5026957;28;20255;-75
2021/08/08 06:38:13;;;;;;;2.23;1.70;;;18.20;99.90;;;;;;5028457;28;20299;-75
2021/08/08 06:40:38;;;;;;;1.60;1.50;;;18.10;99.90;;;;;;5027161;28;20553;-75
2021/08/08 06:43:04;;;;;;;2.43;1.80;;;18.10;99.90;;;;;;5011842;28;20209;-75
2021/08/08 06:45:32;;;;;;;2.13;1.80;;;18.20;99.90;;;;;;5027839;28;20201;-75
2021/08/08 06:47:59;;;;;;;2.37;2.00;;;18.20;99.90;;;;;;5023480;28;20185;-75
2021/08/08 06:50:25;;;;;;;2.40;1.77;;;18.20;99.90;;;;;;5024486;28;20416;-74
2021/08/08 06:52:51;;;;;;;2.60;1.97;;;18.10;99.90;;;;;;5025667;28;20447;-74
2021/08/08 06:55:16;;;;;;;3.13;1.83;;;18.10;99.90;;;;;;5026689;28;20275;-74
2021/08/08 06:57:42;;;;;;;3.00;2.07;;;18.10;99.90;;;;;;5027386;28;20177;-76
2021/08/08 07:00:08;;;;;;;3.73;1.87;;;18.20;99.90;;;;;;5025134;28;20200;-75
2021/08/08 07:02:34;;;;;;;2.30;2.00;;;18.30;99.90;;;;;;5027187;28;20321;-74
2021/08/08 07:05:01;;;;;;;2.33;1.90;;;18.30;99.90;;;;;;5026945;28;20506;-75
2021/08/08 07:07:27;;;;;;;3.13;2.10;;;18.30;99.90;;;;;;5025889;28;20215;-75
2021/08/08 07:09:52;;;;;;;2.13;1.90;;;18.50;99.90;;;;;;5028969;28;20949;-75
2021/08/08 07:12:18;;;;;;;6.23;1.97;;;18.50;99.90;;;;;;5027935;28;20250;-75
2021/08/08 07:14:44;;;;;;;2.67;1.70;;;18.60;99.90;;;;;;5025989;28;20185;-75
2021/08/08 07:17:09;;;;;;;3.03;2.20;;;18.60;99.90;;;;;;5027398;28;20298;-75
2021/08/08 07:19:35;;;;;;;2.80;1.80;;;18.60;99.90;;;;;;5027006;28;20180;-75
2021/08/08 07:22:01;;;;;;;2.10;1.87;;;18.50;99.90;;;;;;5007977;28;20192;-74
2021/08/08 07:24:26;;;;;;;4.30;2.10;;;18.50;99.90;;;;;;5026887;28;20235;-74
2021/08/08 07:26:52;;;;;;;2.60;1.83;;;18.40;99.90;;;;;;5026537;28;20212;-74
2021/08/08 07:29:18;;;;;;;2.53;1.90;;;18.50;99.90;;;;;;5025927;28;20219;-74
2021/08/08 07:31:43;;;;;;;2.07;1.87;;;18.50;99.90;;;;;;5027001;28;20230;-74
2021/08/08 07:34:09;;;;;;;2.30;2.00;;;18.60;99.90;;;;;;5027494;28;20188;-75
2021/08/08 07:36:35;;;;;;;2.50;2.17;;;18.70;99.90;;;;;;5023454;28;20216;-72
2021/08/08 07:39:00;;;;;;;2.50;2.30;;;18.80;99.90;;;;;;5025029;28;20628;-73
2021/08/08 07:41:26;;;;;;;5.10;2.23;;;18.80;99.90;;;;;;5024292;28;20776;-73
2021/08/08 07:43:52;;;;;;;3.23;2.20;;;18.80;99.90;;;;;;5025106;28;20208;-73
2021/08/08 07:46:18;;;;;;;3.90;2.20;;;18.80;99.90;;;;;;5021111;28;20467;-75
2021/08/08 07:48:45;;;;;;;4.10;2.07;;;18.70;99.90;;;;;;5024284;28;20196;-73
2021/08/08 07:51:11;;;;;;;5.30;2.00;;;18.80;99.90;;;;;;5006331;28;20573;-74
2021/08/08 07:53:36;;;;;;;4.30;2.40;;;19.00;99.90;;;;;;5021735;28;20439;-75
2021/08/08 07:56:03;;;;;;;3.33;2.20;;;19.10;99.90;;;;;;5023947;28;20219;-74
2021/08/08 07:58:29;;;;;;;4.43;2.20;;;19.20;99.90;;;;;;5024661;28;20683;-74
2021/08/08 08:00:55;;;;;;;3.30;2.10;;;19.20;99.90;;;;;;5025927;28;20446;-75
2021/08/08 08:03:20;;;;;;;4.47;2.40;;;19.20;99.90;;;;;;5022662;28;20476;-75
2021/08/08 08:05:46;;;;;;;4.90;2.77;;;19.20;99.90;;;;;;5022115;28;20208;-75
2021/08/08 08:08:13;;;;;;;4.50;2.30;;;19.20;99.90;;;;;;5022888;28;20200;-75
2021/08/08 08:10:38;;;;;;;3.90;2.37;;;19.20;99.90;;;;;;5024091;28;20181;-75
2021/08/08 08:13:05;;;;;;;6.20;2.70;;;19.30;99.90;;;;;;5028842;28;20427;-74
2021/08/08 08:15:30;;;;;;;3.40;2.20;;;19.30;99.90;;;;;;5028502;28;20227;-75
2021/08/08 08:17:57;;;;;;;7.40;2.80;;;19.20;99.90;;;;;;5026160;28;20948;-75
2021/08/08 08:20:23;;;;;;;6.27;2.70;;;19.20;99.90;;;;;;5025709;28;20212;-74
2021/08/08 08:22:49;;;;;;;4.90;2.60;;;19.20;99.90;;;;;;5025685;28;20524;-74
2021/08/08 08:25:17;;;;;;;4.60;2.63;;;19.30;99.90;;;;;;5023563;28;20521;-74
2021/08/08 08:27:43;;;;;;;3.10;2.03;;;19.40;99.90;;;;;;5023011;28;20485;-74
2021/08/08 08:30:09;;;;;;;3.90;2.40;;;19.50;99.90;;;;;;5023095;28;20427;-74
2021/08/08 08:32:35;;;;;;;6.60;2.33;;;19.50;99.90;;;;;;5024174;28;20198;-74
2021/08/08 08:35:03;;;;;;;8.13;2.33;;;19.50;99.90;;;;;;5025568;28;20443;-74
2021/08/08 08:37:32;;;;;;;4.30;2.40;;;19.50;99.90;;;;;;5025174;28;20216;-74
2021/08/08 08:39:59;;;;;;;3.20;2.50;;;19.50;99.90;;;;;;5023527;28;20787;-74
2021/08/08 08:42:28;;;;;;;4.30;2.50;;;19.50;99.90;;;;;;5026767;28;20477;-74
2021/08/08 08:44:54;;;;;;;4.20;2.80;;;19.50;99.90;;;;;;5027358;28;20427;-73
2021/08/08 08:47:21;;;;;;;3.30;2.17;;;19.50;99.90;;;;;;5026262;28;20965;-73
2021/08/08 08:49:51;;;;;;;3.83;3.53;;;19.40;99.90;;;;;;5027411;28;20427;-73
2021/08/08 08:52:22;;;;;;;5.87;2.77;;;19.30;99.90;;;;;;5027738;28;20430;-72
2021/08/08 08:54:47;;;;;;;4.03;2.87;;;19.30;99.90;;;;;;5027505;28;20438;-73
2021/08/08 08:57:15;;;;;;;2.87;2.60;;;19.10;99.90;;;;;;5029402;28;20459;-72
2021/08/08 08:59:42;;;;;;;5.50;3.20;;;19.10;99.90;;;;;;5026764;28;20861;-73
2021/08/08 09:02:07;;;;;;;4.40;2.73;;;18.90;99.90;;;;;;5027722;28;20512;-72
2021/08/08 09:04:33;;;;;;;3.10;2.60;;;18.90;99.90;;;;;;5028068;28;20440;-72
2021/08/08 09:06:59;;;;;;;4.00;2.87;;;18.90;99.90;;;;;;5026101;28;20204;-75
2021/08/08 09:09:25;;;;;;;6.23;3.30;;;19.00;99.90;;;;;;5025515;28;20729;-72
2021/08/08 09:11:51;;;;;;;5.13;3.10;;;19.20;99.90;;;;;;5024303;28;20444;-73
2021/08/08 09:14:17;;;;;;;3.07;2.63;;;19.30;99.90;;;;;;5023467;28;20223;-73
2021/08/08 09:16:45;;;;;;;6.90;3.70;;;19.40;99.90;;;;;;5027308;28;20487;-73
2021/08/08 09:19:24;;;;;;;2.90;2.70;;;19.60;99.90;;;;;;5028152;28;20554;-74
2021/08/08 09:21:51;;;;;;;7.43;3.00;;;19.80;99.90;;;;;;5030867;28;20462;-75
2021/08/08 09:24:37;;;;;;;3.63;2.80;;;20.00;99.90;;;;;;5026769;28;20526;-74
2021/08/08 09:27:11;;;;;;;2.83;2.57;;;20.10;99.90;;;;;;5029318;28;20451;-74
2021/08/08 09:29:40;;;;;;;4.50;3.67;;;20.10;99.90;;;;;;5027119;28;20439;-74
2021/08/08 09:32:07;;;;;;;6.50;2.90;;;20.20;99.90;;;;;;5025917;28;20434;-75
2021/08/08 09:34:43;;;;;;;4.30;2.70;;;20.20;99.90;;;;;;5028971;28;20463;-74
2021/08/08 09:37:18;;;;;;;7.10;3.17;;;20.40;99.90;;;;;;5026840;28;20881;-74
2021/08/08 09:39:48;;;;;;;7.13;3.40;;;20.40;99.90;;;;;;5031745;28;20441;-74
2021/08/08 09:42:16;;;;;;;2.83;2.57;;;20.40;99.90;;;;;;5028046;28;20481;-74
2021/08/08 09:45:03;;;;;;;4.63;2.70;;;20.50;99.90;;;;;;5026882;28;20482;-75
2021/08/08 09:47:39;;;;;;;2.53;2.33;;;20.70;99.90;;;;;;5025465;28;20469;-73
2021/08/08 09:50:08;;;;;;;9.67;2.87;;;20.70;99.90;;;;;;5025962;28;20979;-72
2021/08/08 09:52:36;;;;;;;6.80;2.67;;;20.40;99.90;;;;;;5025575;28;20856;-73
2021/08/08 09:55:20;;;;;;;4.47;2.60;;;20.50;99.90;;;;;;5025911;28;20462;-74
2021/08/08 09:57:45;;;;;;;5.87;3.17;;;20.50;99.90;;;;;;5027673;28;20448;-73
2021/08/08 10:00:29;;;;;;;4.33;3.10;;;20.40;99.90;;;;;;5027128;28;20497;-74
2021/08/08 10:02:55;;;;;;;5.37;2.73;;;20.50;99.90;;;;;;5028093;28;20212;-73
2021/08/08 10:05:22;;;;;;;5.73;3.13;;;20.50;99.90;;;;;;5027054;28;20501;-73
2021/08/08 10:07:49;;;;;;;7.50;2.67;;;20.70;99.90;;;;;;5025350;28;20439;-73
2021/08/08 10:10:16;;;;;;;5.37;3.00;;;20.70;99.90;;;;;;5025871;28;20419;-73
2021/08/08 10:13:16;;;;;;;4.53;3.00;;;20.80;99.90;;;;;;5028030;28;20922;-73
2021/08/08 10:15:44;;;;;;;5.77;3.20;;;20.70;99.90;;;;;;5003283;28;20558;-73
2021/08/08 10:18:13;;;;;;;4.77;3.10;;;20.60;99.90;;;;;;5025243;28;20449;-73
2021/08/08 10:20:39;;;;;;;5.97;2.93;;;20.50;99.90;;;;;;5025147;28;20526;-76
2021/08/08 10:23:06;;;;;;;3.77;3.10;;;20.40;99.90;;;;;;5026462;28;20479;-74
2021/08/08 10:25:31;;;;;;;3.27;2.90;;;20.40;99.90;;;;;;5023810;28;20455;-73
2021/08/08 10:27:58;;;;;;;7.40;2.70;;;20.40;99.90;;;;;;5006543;28;20432;-73
2021/08/08 10:30:25;;;;;;;6.03;3.27;;;20.40;99.90;;;;;;5022004;28;20675;-72
2021/08/08 10:32:51;;;;;;;3.13;2.80;;;20.40;99.90;;;;;;5024493;28;20610;-73
2021/08/08 10:35:18;;;;;;;5.63;2.83;;;20.20;99.90;;;;;;5007284;28;20562;-73
2021/08/08 10:37:47;;;;;;;7.70;3.43;;;20.20;99.90;;;;;;5018909;28;20451;-73
2021/08/08 10:40:25;;;;;;;6.27;3.30;;;20.40;99.90;;;;;;5024515;28;20439;-75
2021/08/08 10:42:51;;;;;;;3.47;2.90;;;20.50;99.90;;;;;;5024105;28;20475;-72
2021/08/08 10:45:28;;;;;;;2.53;2.33;;;20.30;99.90;;;;;;5023602;28;20456;-72
2021/08/08 10:47:59;;;;;;;4.13;2.67;;;20.40;99.90;;;;;;5023380;28;20191;-74
2021/08/08 10:50:46;;;;;;;3.80;2.50;;;20.50;99.90;;;;;;5022842;28;20431;-74
2021/08/08 10:53:28;;;;;;;5.63;2.80;;;20.80;99.90;;;;;;5022902;28;20830;-74
2021/08/08 10:56:11;;;;;;;2.70;2.50;;;20.50;99.90;;;;;;5023173;28;20494;-74
2021/08/08 10:58:39;;;;;;;3.30;2.27;;;20.40;99.90;;;;;;5023162;28;20431;-74
2021/08/08 11:01:18;;;;;;;3.60;2.70;;;20.50;99.90;;;;;;5023781;28;20439;-74
2021/08/08 11:03:55;;;;;;;4.43;3.23;;;20.50;99.90;;;;;;5024080;28;20868;-73
2021/08/08 11:06:23;;;;;;;3.83;2.73;;;20.70;99.90;;;;;;5020974;28;20933;-73
2021/08/08 11:08:54;;;;;;;5.07;2.50;;;20.90;99.90;;;;;;5023218;28;20870;-74
2021/08/08 11:11:31;;;;;;;3.83;3.23;;;20.80;99.90;;;;;;5021796;28;20470;-74
2021/08/08 11:14:17;;;;;;;2.70;2.50;;;20.80;99.90;;;;;;5023318;28;20441;-74
2021/08/08 11:16:45;;;;;;;3.13;2.73;;;20.80;99.90;;;;;;5020120;28;20458;-74
2021/08/08 11:19:12;;;;;;;3.97;2.60;;;21.00;99.90;;;;;;5022368;28;20434;-73
2021/08/08 11:21:39;;;;;;;4.77;2.93;;;21.00;99.90;;;;;;5023331;28;20427;-74
2021/08/08 11:24:09;;;;;;;5.70;3.23;;;20.90;99.90;;;;;;5020322;28;20469;-73
2021/08/08 11:26:35;;;;;;;6.13;3.10;;;20.80;99.90;;;;;;5026266;28;20442;-73
2021/08/08 11:29:03;;;;;;;5.57;2.97;;;20.40;99.90;;;;;;5020589;28;20427;-73
2021/08/08 11:31:35;;;;;;;7.50;2.83;;;20.20;99.90;;;;;;5017663;28;20651;-74
2021/08/08 11:34:09;;;;;;;3.73;2.90;;;20.10;99.90;;;;;;5021637;28;20593;-73
2021/08/08 11:36:40;;;;;;;4.53;2.73;;;19.80;99.90;;;;;;5020970;28;20470;-73
2021/08/08 11:39:09;;;;;;;3.10;2.70;;;19.40;99.90;;;;;;5020810;28;20577;-73
2021/08/08 11:41:34;;;;;;;2.90;2.50;;;19.30;99.90;;;;;;5022854;28;20442;-73
2021/08/08 11:44:13;;;;;;;3.40;3.10;;;19.20;99.90;;;;;;5020709;28;20991;-75
2021/08/08 11:46:56;;;;;;;7.87;3.17;;;19.30;99.90;;;;;;5024631;28;20588;-77
2021/08/08 11:49:25;;;;;;;3.70;2.67;;;19.10;99.90;;;;;;5021759;28;20464;-73
2021/08/08 11:52:13;;;;;;;7.50;2.67;;;19.40;99.90;;;;;;5016100;28;20439;-73
2021/08/08 11:54:38;;;;;;;4.03;2.70;;;19.80;99.90;;;;;;5012174;28;20438;-72
2021/08/08 11:57:04;;;;;;;3.00;2.70;;;20.00;99.90;;;;;;5010486;28;20471;-73
2021/08/08 11:59:34;;;;;;;2.60;2.40;;;20.10;99.90;;;;;;5015713;28;20580;-73
2021/08/08 12:02:07;;;;;;;9.83;2.33;;;20.30;99.90;;;;;;5015934;28;20785;-73
2021/08/08 12:04:36;;;;;;;2.50;2.30;;;20.40;99.90;;;;;;5015484;28;20526;-75
2021/08/08 12:07:04;;;;;;;3.50;2.27;;;21.30;99.90;;;;;;5019020;28;20451;-74
2021/08/08 12:09:30;;;;;;;2.77;2.43;;;22.10;99.90;;;;;;5018398;28;21161;-73
2021/08/08 12:11:57;;;;;;;3.40;2.50;;;21.90;99.90;;;;;;5021533;28;20427;-74
2021/08/08 12:14:38;;;;;;;2.60;2.40;;;22.00;99.90;;;;;;5019824;28;20439;-74
2021/08/08 12:17:12;;;;;;;4.20;3.07;;;22.80;99.90;;;;;;5023893;28;20826;-75
2021/08/08 12:19:40;;;;;;;6.30;2.80;;;22.90;99.90;;;;;;5023776;28;20426;-72
2021/08/08 12:22:08;;;;;;;2.40;2.20;;;24.00;99.90;;;;;;5023560;28;20933;-76
2021/08/08 12:24:40;;;;;;;3.60;2.60;;;24.60;99.90;;;;;;5019614;28;20462;-72
2021/08/08 12:27:07;;;;;;;5.30;2.90;;;24.30;99.90;;;;;;5023639;28;20443;-72
2021/08/08 12:29:36;;;;;;;4.57;2.40;;;24.50;99.90;;;;;;5021299;28;20442;-73
2021/08/08 12:32:16;;;;;;;2.93;2.73;;;25.00;99.90;;;;;;5021413;28;20442;-72
2021/08/08 12:34:45;;;;;;;3.43;2.67;;;25.70;99.90;;;;;;5020159;28;20764;-72
2021/08/08 12:37:15;;;;;;;3.33;2.43;;;25.60;99.90;;;;;;5020218;28;20474;-72
2021/08/08 12:39:43;;;;;;;4.47;2.53;;;27.00;99.90;;;;;;5023206;28;20435;-73
2021/08/08 12:42:23;;;;;;;2.70;2.30;;;27.40;99.90;;;;;;5023306;28;20505;-74
2021/08/08 12:45:00;;;;;;;5.30;2.70;;;28.10;99.90;;;;;;5025495;28;20477;-71
2021/08/08 12:47:30;;;;;;;5.33;2.40;;;28.40;99.90;;;;;;5024893;28;21041;-73
2021/08/08 12:49:56;;;;;;;3.20;2.47;;;29.50;99.90;;;;;;5024478;28;20458;-74